Time;durP1;ratioP1;P1;durP2;ratioP2;P2;SDS_P1;SDS_P2;PMS_P1;PMS_P2;Temp;Humidity;BMP_temperature;BMP_pressure;BME280_temperature;BME280_humidity;BME280_pressure;Samples;Min_cycle;Max_cycle;Signal;HPM_P1;HPM_P2
2021/05/04 00:01:52;;;;;;;7.63;3.97;;;;;;;8.67;64.83;92818.41;6279589;22;20094;-90
2021/05/04 00:10:47;;;;;;;6.63;3.85;;;;;;;8.44;64.07;92778.81;6286466;22;20102;-90
2021/05/04 00:13:56;;;;;;;6.32;3.50;;;;;;;8.54;63.83;92781.41;6257432;22;20065;-90
2021/05/04 00:17:01;;;;;;;6.97;3.60;;;;;;;8.72;63.94;92808.75;6288161;22;20107;-91
2021/05/04 00:19:54;;;;;;;5.95;3.40;;;;;;;8.78;63.95;92806.13;6235009;22;20438;-90
2021/05/04 00:22:32;;;;;;;6.40;3.47;;;;;;;8.57;63.86;92774.88;6254163;22;20068;-90
2021/05/04 00:25:13;;;;;;;5.82;3.53;;;;;;;8.79;63.65;92803.25;6231496;22;20015;-90
2021/05/04 00:28:13;;;;;;;7.72;4.82;;;;;;;8.95;64.00;92817.03;6259712;22;20094;-90
2021/05/04 00:31:06;;;;;;;7.15;3.70;;;;;;;9.02;62.99;92824.56;6254586;22;20026;-90
2021/05/04 00:34:00;;;;;;;5.25;3.20;;;;;;;8.92;63.55;92799.31;6284255;22;20023;-90
2021/05/04 00:36:41;;;;;;;;;;;;;;;;;;;;;
2021/05/04 00:40:08;;;;;;;7.10;3.38;;;;;;;8.92;64.02;92797.47;6307504;22;20578;-90
2021/05/04 00:43:27;;;;;;;;;;;;;;;;;;;;;
2021/05/04 00:46:10;;;;;;;6.68;3.22;;;;;;;8.67;65.08;92761.81;6278716;22;20029;-91
2021/05/04 00:48:54;;;;;;;5.32;2.97;;;;;;;8.71;64.92;92767.25;6255255;22;20041;-89
2021/05/04 00:52:19;;;;;;;;;;;;;;;;;;;;;
2021/05/04 00:55:14;;;;;;;6.10;3.20;;;;;;;8.68;64.45;92759.97;6302657;22;20109;-90
2021/05/04 00:58:05;;;;;;;;;;;;;;;;;;;;;
2021/05/04 01:01:20;;;;;;;6.43;3.70;;;;;;;8.68;64.69;92754.75;6278999;22;20073;-91
2021/05/04 01:03:54;;;;;;;8.02;4.13;;;;;;;8.69;64.46;92756.31;6252915;22;20017;-90
2021/05/04 01:06:36;;;;;;;6.93;3.72;;;;;;;8.83;64.56;92778.19;6305576;22;20438;-91
2021/05/04 01:09:31;;;;;;;6.18;3.70;;;;;;;8.98;64.75;92795.59;6254592;22;20494;-90
2021/05/04 01:12:39;;;;;;;5.72;3.83;;;;;;;8.98;65.12;92794.81;6261884;22;20141;-90
2021/05/04 01:15:33;;;;;;;6.30;3.47;;;;;;;8.77;65.46;92762.81;6264098;22;20098;-90
2021/05/04 01:18:22;;;;;;;;;;;;;;;;;;;;;
2021/05/04 01:21:02;;;;;;;6.40;4.20;;;;;;;8.64;65.69;92744.06;6278847;22;20030;-91
2021/05/04 01:23:55;;;;;;;8.73;4.22;;;;;;;8.63;65.71;92734.69;6253695;22;20443;-90
2021/05/04 01:27:21;;;;;;;7.47;4.32;;;;;;;8.75;65.82;92757.84;6275919;22;20375;-90
2021/05/04 01:29:53;;;;;;;8.25;4.60;;;;;;;8.65;65.91;92739.63;6281716;22;20019;-90
2021/05/04 01:32:44;;;;;;;8.38;5.10;;;;;;;8.62;66.03;92735.72;6276065;22;20098;-91
2021/05/04 01:35:30;;;;;;;;;;;;;;;;;;;;;
2021/05/04 01:38:24;;;;;;;7.40;4.95;;;;;;;8.62;67.05;92735.72;6286824;22;20522;-90
2021/05/04 01:41:30;;;;;;;10.15;4.75;;;;;;;8.91;67.17;92769.78;6256284;22;20019;-90
2021/05/04 01:44:30;;;;;;;;;;;;;;;;;;;;;
2021/05/04 01:47:17;;;;;;;;;;;;;;;;;;;;;
2021/05/04 01:50:02;;;;;;;8.25;5.20;;;;;;;8.51;66.86;92716.72;6258736;22;20062;-90
2021/05/04 01:52:33;;;;;;;11.07;4.90;;;;;;;8.73;67.53;92747.66;6282463;22;20019;-90
2021/05/04 01:55:12;;;;;;;8.15;4.82;;;;;;;8.48;67.38;92714.63;6255720;22;20634;-90
2021/05/04 01:58:12;;;;;;;7.90;4.65;;;;;;;8.59;67.40;92730.25;6281029;22;20019;-91
2021/05/04 02:00:57;;;;;;;8.15;5.32;;;;;;;8.70;67.48;92752.66;6230870;22;20015;-89
2021/05/04 02:03:58;;;;;;;9.32;5.10;;;;;;;8.53;67.73;92737.31;6261162;22;20114;-90
2021/05/04 02:06:40;;;;;;;9.68;5.18;;;;;;;8.28;67.37;92704.25;6258145;22;20061;-90
2021/05/04 02:09:15;;;;;;;10.68;5.00;;;;;;;8.23;67.73;92706.88;6232922;22;20050;-91
2021/05/04 02:11:52;;;;;;;7.90;4.88;;;;;;;8.28;68.14;92725.09;6257704;22;20034;-90
2021/05/04 02:14:59;;;;;;;;;;;;;;;;;;;;;
2021/05/04 02:17:47;;;;;;;8.98;5.55;;;;;;;7.92;68.59;92697.31;6257328;22;20110;-90
2021/05/04 02:20:38;;;;;;;8.73;5.43;;;;;;;8.04;68.74;92719.72;6261315;22;20502;-90
2021/05/04 02:23:44;;;;;;;;;;;;;;;;;;;;;
2021/05/04 02:26:51;;;;;;;;;;;;;;;;;;;;;
2021/05/04 02:29:42;;;;;;;9.60;5.65;;;;;;;7.87;70.26;92725.19;6285144;22;20325;-90
2021/05/04 02:32:34;;;;;;;;;;;;;;;;;;;;;
2021/05/04 02:35:21;;;;;;;8.93;5.38;;;;;;;7.63;69.64;92686.69;6284813;22;20106;-90
2021/05/04 02:38:10;;;;;;;12.30;5.10;;;;;;;7.60;69.38;92676.00;6208213;22;20031;-90
2021/05/04 02:40:56;;;;;;;10.75;5.88;;;;;;;7.96;69.54;92728.06;6281085;22;20053;-90
2021/05/04 02:44:11;;;;;;;14.80;5.57;;;;;;;7.84;69.26;92700.44;6245608;22;20020;-90
2021/05/04 02:46:47;;;;;;;9.98;5.85;;;;;;;7.66;69.22;92669.72;6295132;22;20050;-90
2021/05/04 02:49:56;;;;;;;14.75;5.45;;;;;;;7.67;69.78;92669.44;6305580;22;20019;-89
2021/05/04 02:52:30;;;;;;;7.97;5.13;;;;;;;7.87;69.86;92693.94;6231423;22;20085;-89
2021/05/04 02:55:18;;;;;;;13.18;5.50;;;;;;;7.67;70.38;92666.84;6255225;22;20076;-90
2021/05/04 02:58:11;;;;;;;8.23;4.78;;;;;;;7.53;70.66;92654.63;6280579;22;20012;-91
2021/05/04 03:01:10;;;;;;;9.25;5.35;;;;;;;7.52;70.93;92661.69;6262921;22;20399;-90
2021/05/04 03:03:48;;;;;;;10.75;5.20;;;;;;;7.37;70.88;92644.22;6281274;22;20057;-90
2021/05/04 03:06:34;;;;;;;;;;;;;;;;;;;;;
2021/05/04 03:09:25;;;;;;;11.65;5.30;;;;;;;7.26;71.18;92647.88;6279224;22;20019;-89
2021/05/04 03:12:25;;;;;;;7.30;4.53;;;;;;;7.51;71.40;92696.56;6280382;22;20351;-91
2021/05/04 03:15:18;;;;;;;9.48;5.13;;;;;;;7.33;71.53;92668.47;6254557;22;20073;-90
2021/05/04 03:18:00;;;;;;;;;;;;;;;;;;;;;
2021/05/04 03:21:31;;;;;;;;;;;;;;;;;;;;;
2021/05/04 03:24:46;;;;;;;10.18;5.25;;;;;;;7.02;72.27;92647.63;6282302;22;20015;-90
2021/05/04 03:27:59;;;;;;;;;;;;;;;;;;;;;
2021/05/04 03:31:08;;;;;;;;;;;;;;;;;;;;;
2021/05/04 03:33:59;;;;;;;8.75;5.55;;;;;;;7.13;72.15;92661.41;6306195;22;20095;-90
2021/05/04 03:36:53;;;;;;;9.27;6.00;;;;;;;7.04;72.73;92650.75;6263183;22;20024;-89
2021/05/04 03:39:45;;;;;;;10.07;5.90;;;;;;;7.11;72.91;92660.91;6254407;22;20011;-90
2021/05/04 03:42:51;;;;;;;14.23;5.97;;;;;;;6.99;73.35;92643.72;6252935;22;20023;-90
2021/05/04 03:45:41;;;;;;;;;;;;;;;;;;;;;
2021/05/04 03:48:36;;;;;;;10.55;6.85;;;;;;;6.98;73.73;92651.78;6277216;22;20019;-90
2021/05/04 03:51:19;;;;;;;;;;;;;;;;;;;;;
2021/05/04 03:54:01;;;;;;;9.15;5.93;;;;;;;6.86;73.40;92641.63;6279781;22;20011;-90
2021/05/04 03:57:08;;;;;;;;;;;;;;;;;;;;;
2021/05/04 03:59:39;;;;;;;11.68;6.32;;;;;;;6.80;73.53;92643.44;6257617;22;20019;-90
2021/05/04 04:02:40;;;;;;;;;;;;;;;;;;;;;
2021/05/04 04:05:45;;;;;;;11.38;6.28;;;;;;;6.54;74.21;92621.03;6289765;22;20490;-90
2021/05/04 04:08:48;;;;;;;;;;;;;;;;;;;;;
2021/05/04 04:11:45;;;;;;;10.73;6.68;;;;;;;6.47;74.59;92618.66;6285153;22;20099;-90
2021/05/04 04:14:50;;;;;;;;;;;;;;;;;;;;;
2021/05/04 04:17:25;;;;;;;;;;;;;;;;;;;;;
2021/05/04 04:20:24;;;;;;;;;;;;;;;;;;;;;
2021/05/04 04:23:29;;;;;;;14.63;8.60;;;;;;;6.55;75.50;92633.78;6276591;22;20015;-91
2021/05/04 04:27:20;;;;;;;12.57;7.47;;;;;;;6.66;75.00;92630.16;6279926;22;20046;-93
2021/05/04 04:30:28;;;;;;;;;;;;;;;;;;;;;
2021/05/04 04:33:37;;;;;;;;;;;;;;;;;;;;;
2021/05/04 04:40:29;;;;;;;;;;;;;;;;;;;;;
2021/05/04 04:44:06;;;;;;;11.73;5.85;;;;;;;7.65;73.81;92676.75;6065255;23;20201;-92
2021/05/04 04:47:05;;;;;;;;;;;;;;;;;;;;;
2021/05/04 04:50:07;;;;;;;;;;;;;;;;;;;;;
2021/05/04 04:53:07;;;;;;;12.93;6.35;;;;;;;7.96;73.36;92674.09;6083267;23;20079;-92
2021/05/04 04:59:01;;;;;;;12.23;6.28;;;;;;;7.85;71.81;92625.63;6061836;23;20019;-92
2021/05/04 05:02:43;;;;;;;12.18;6.40;;;;;;;8.02;70.13;92641.75;6045669;23;20026;-92
2021/05/04 05:05:34;;;;;;;;;;;;;;;;;;;;;
2021/05/04 05:08:58;;;;;;;7.63;5.75;;;;;;;8.34;70.22;92669.28;6224260;23;20095;-92
2021/05/04 05:12:05;;;;;;;;;;;;;;;;;;;;;
2021/05/04 05:14:41;;;;;;;9.25;5.75;;;;;;;8.10;70.45;92625.53;6219410;23;20115;-92
2021/05/04 05:21:58;;;;;;;;;;;;;;;;;;;;;
2021/05/04 05:25:01;;;;;;;;;;;;;;;;;;;;;
2021/05/04 05:34:28;;;;;;;8.07;5.93;;;;;;;8.54;70.50;92635.28;6289001;22;20038;-92
2021/05/04 05:40:47;;;;;;;8.52;5.68;;;;;;;8.83;70.47;92637.22;6263065;22;20050;-92
2021/05/04 05:44:03;;;;;;;11.48;5.65;;;;;;;9.06;69.36;92624.53;6263359;22;20070;-91
2021/05/04 05:47:20;;;;;;;13.35;6.90;;;;;;;9.76;67.58;92671.25;6254717;22;20022;-92
2021/05/04 05:53:34;;;;;;;11.68;6.13;;;;;;;10.26;62.62;92629.91;6291205;22;20094;-92
2021/05/04 05:56:47;;;;;;;9.27;6.53;;;;;;;10.63;61.23;92631.84;6254857;22;20513;-93
2021/05/04 05:59:52;;;;;;;;;;;;;;;;;;;;;
2021/05/04 06:02:58;;;;;;;;;;;;;;;;;;;;;
2021/05/04 06:06:03;;;;;;;8.55;3.30;;;;;;;9.90;65.53;92632.13;6289151;22;20404;-92
2021/05/04 06:13:05;;;;;;;;;;;;;;;;;;;;;
2021/05/04 06:19:33;;;;;;;6.53;4.55;;;;;;;9.45;65.97;92657.66;6289597;22;20102;-91
2021/05/04 06:22:23;;;;;;;7.05;4.28;;;;;;;9.51;67.70;92664.41;6239880;22;20025;-92
2021/05/04 06:25:48;;;;;;;9.93;4.82;;;;;;;9.57;68.40;92684.22;6266078;22;20506;-92
2021/05/04 06:32:45;;;;;;;10.23;6.05;;;;;;;9.57;67.33;92681.63;6301820;22;20019;-93
2021/05/04 06:35:58;;;;;;;10.90;6.63;;;;;;;9.30;67.03;92669.78;6272475;22;20027;-93
2021/05/04 06:46:11;;;;;;;;;;;;;;;;;;;;;
2021/05/04 06:49:53;;;;;;;10.77;6.32;;;;;;;9.76;66.33;92690.31;6307290;22;20098;-92
2021/05/04 06:53:04;;;;;;;12.10;6.53;;;;;;;9.43;66.09;92650.09;6298361;22;20019;-92
2021/05/04 06:56:34;;;;;;;13.82;6.25;;;;;;;9.83;66.27;92694.44;6274009;22;20051;-93
2021/05/04 06:59:41;;;;;;;10.52;6.05;;;;;;;10.23;65.01;92690.63;6308318;22;20090;-92
2021/05/04 07:02:30;;;;;;;;;;;;;;;;;;;;;
2021/05/04 07:09:08;;;;;;;;;;;;;;;;;;;;;
2021/05/04 07:12:24;;;;;;;;;;;;;;;;;;;;;
2021/05/04 07:15:31;;;;;;;10.70;4.72;;;;;;;11.36;61.07;92642.81;6307772;22;20075;-93
2021/05/04 07:18:26;;;;;;;12.00;5.10;;;;;;;11.59;60.74;92663.94;6299496;22;20019;-93
2021/05/04 07:22:11;;;;;;;8.95;5.05;;;;;;;11.34;61.11;92629.22;6239741;22;20086;-92
2021/05/04 07:25:20;;;;;;;7.50;4.60;;;;;;;11.84;61.42;92673.22;6274422;22;20031;-93
2021/05/04 07:28:44;;;;;;;9.90;5.05;;;;;;;11.10;63.98;92659.97;6304003;22;20290;-92
2021/05/04 07:31:24;;;;;;;9.48;4.85;;;;;;;10.77;63.57;92654.69;6279431;22;20015;-93
2021/05/04 07:34:15;;;;;;;9.27;5.22;;;;;;;10.69;64.32;92643.00;6273099;22;20051;-92
2021/05/04 07:37:41;;;;;;;;;;;;;;;;;;;;;
2021/05/04 07:41:03;;;;;;;8.97;5.23;;;;;;;10.36;66.24;92684.00;6296984;22;20022;-93
2021/05/04 07:44:46;;;;;;;;;;;;;;;;;;;;;
2021/05/04 07:51:26;;;;;;;9.10;5.57;;;;;;;10.65;65.38;92641.22;6297249;22;20367;-94
2021/05/04 07:54:36;;;;;;;;;;;;;;;;;;;;;
2021/05/04 08:05:13;;;;;;;12.10;5.63;;;;;;;11.25;61.55;92628.31;6158497;23;20433;-94
2021/05/04 08:08:16;;;;;;;;;;;;;;;;;;;;;
2021/05/04 08:11:00;;;;;;;10.75;6.00;;;;;;;10.63;64.84;92639.69;6289962;22;20090;-93
2021/05/04 08:14:24;;;;;;;;;;;;;;;;;;;;;
2021/05/04 08:17:14;;;;;;;;;;;;;;;;;;;;;
2021/05/04 08:23:45;;;;;;;9.18;5.65;;;;;;;11.91;59.85;92628.28;6270607;22;20071;-93
2021/05/04 08:26:43;;;;;;;;;;;;;;;;;;;;;
2021/05/04 08:29:55;;;;;;;;;;;;;;;;;;;;;
2021/05/04 08:32:42;;;;;;;8.98;5.35;;;;;;;12.25;58.98;92618.22;6122009;23;20085;-93
2021/05/04 08:35:34;;;;;;;11.70;4.68;;;;;;;12.25;56.00;92605.09;6121275;23;20048;-94
2021/05/04 08:39:11;;;;;;;10.23;5.32;;;;;;;12.19;58.27;92619.38;6253732;22;20527;-94
2021/05/04 08:45:44;;;;;;;10.15;4.85;;;;;;;11.43;58.99;92613.63;6239204;22;20099;-93
2021/05/04 08:55:25;;;;;;;10.60;5.68;;;;;;;11.03;63.03;92614.00;6277543;22;20016;-93
2021/05/04 08:58:54;;;;;;;;;;;;;;;;;;;;;
2021/05/04 09:02:38;;;;;;;8.85;5.60;;;;;;;11.13;61.89;92604.41;6234630;22;20091;-93
2021/05/04 09:09:47;;;;;;;;;;;;;;;;;;;;;
2021/05/04 09:20:59;;;;;;;;;;;;;;;;;;;;;
2021/05/04 09:23:18;;;;;;;9.20;5.20;;;;;;;13.01;55.21;92604.50;6266535;22;20042;-94
2021/05/04 09:26:47;;;;;;;;;;;;;;;;;;;;;
2021/05/04 09:32:27;;;;;;;8.27;5.55;;;;;;;13.34;55.37;92627.97;6093444;23;20113;-93
2021/05/04 09:35:44;;;;;;;9.77;5.97;;;;;;;12.80;55.30;92579.78;6177057;23;20449;-92
2021/05/04 09:39:19;;;;;;;;;;;;;;;;;;;;;
2021/05/04 09:42:34;;;;;;;8.55;5.78;;;;;;;11.66;51.56;92586.50;6096030;23;20373;-92
2021/05/04 09:46:01;;;;;;;;;;;;;;;;;;;;;
2021/05/04 09:49:00;;;;;;;10.43;5.72;;;;;;;12.35;54.70;92622.47;6188678;23;20031;-93
2021/05/04 09:52:49;;;;;;;;;;;;;;;;;;;;;
2021/05/04 10:02:17;;;;;;;8.95;4.22;;;;;;;12.97;48.09;92568.63;6095031;23;20098;-93
2021/05/04 10:05:51;;;;;;;7.38;4.40;;;;;;;12.55;50.54;92589.78;6154376;23;20473;-91
2021/05/04 10:09:24;;;;;;;7.60;4.63;;;;;;;12.44;52.11;92577.94;6153733;23;20105;-93
2021/05/04 10:13:27;;;;;;;6.55;3.88;;;;;;;13.19;49.81;92552.09;6172380;23;20319;-94
2021/05/04 10:20:17;;;;;;;;;;;;;;;;;;;;;
2021/05/04 10:27:36;;;;;;;4.75;3.08;;;;;;;13.23;47.01;92524.91;6101608;23;20014;-93
2021/05/04 10:31:16;;;;;;;5.20;3.30;;;;;;;13.59;46.99;92567.97;6166106;23;20026;-93
2021/05/04 10:34:43;;;;;;;;;;;;;;;;;;;;;
2021/05/04 10:38:08;;;;;;;;;;;;;;;;;;;;;
2021/05/04 10:48:49;;;;;;;7.75;3.70;;;;;;;13.97;47.93;92525.41;6043045;23;20022;-94
2021/05/04 10:52:18;;;;;;;7.15;3.47;;;;;;;14.28;47.13;92525.31;6155759;23;20030;-94
2021/05/04 10:55:56;;;;;;;5.93;3.08;;;;;;;13.83;46.94;92480.78;6095762;23;20030;-93
2021/05/04 10:59:14;;;;;;;6.82;3.00;;;;;;;13.70;46.31;92485.06;6172342;23;20109;-94
2021/05/04 11:02:33;;;;;;;6.70;3.00;;;;;;;13.57;47.09;92491.97;6195857;23;20025;-93
2021/05/04 11:15:35;;;;;;;;;;;;;;;;;;;;;
2021/05/04 11:26:11;;;;;;;7.55;3.83;;;;;;;13.67;44.62;92457.53;6182902;23;20018;-94
2021/05/04 11:30:03;;;;;;;6.30;3.17;;;;;;;14.00;41.86;92461.63;6198312;23;20017;-93
2021/05/04 11:33:07;;;;;;;5.05;2.90;;;;;;;14.54;42.04;92465.53;6116157;23;20019;-94
2021/05/04 11:36:00;;;;;;;;;;;;;;;;;;;;;
2021/05/04 11:39:12;;;;;;;;;;;;;;;;;;;;;
2021/05/04 11:42:49;;;;;;;6.43;3.10;;;;;;;14.37;41.40;92429.44;6164407;23;20342;-93
2021/05/04 11:53:14;;;;;;;;;;;;;;;;;;;;;
2021/05/04 12:38:23;;;;;;;4.95;2.00;;;;;;;14.53;40.14;92389.47;6191840;22;20540;-92
2021/05/04 12:41:48;;;;;;;;;;;;;;;;;;;;;
2021/05/04 12:44:44;;;;;;;7.55;1.90;;;;;;;14.70;40.16;92365.75;6271962;22;20358;-95
2021/05/04 12:48:05;;;;;;;3.75;1.80;;;;;;;15.26;39.64;92357.00;6265212;22;20019;-94
2021/05/04 12:51:23;;;;;;;;;;;;;;;;;;;;;
2021/05/04 12:54:59;;;;;;;;;;;;;;;;;;;;;
2021/05/04 13:01:33;;;;;;;3.80;2.03;;;;;;;14.68;39.33;92367.94;6285501;22;20076;-93
2021/05/04 13:08:28;;;;;;;5.38;1.80;;;;;;;14.02;40.67;92344.44;6279839;22;20532;-93
2021/05/04 13:11:15;;;;;;;;;;;;;;;;;;;;;
2021/05/04 13:14:29;;;;;;;4.18;1.90;;;;;;;13.66;40.47;92332.34;6255005;22;20015;-93
2021/05/04 13:18:21;;;;;;;3.92;1.92;;;;;;;14.11;40.74;92326.75;6289263;22;20030;-94
2021/05/04 13:51:20;;;;;;;5.93;1.90;;;;;;;13.48;42.80;92299.22;6258975;22;20034;-94
2021/05/04 13:54:57;;;;;;;5.95;2.08;;;;;;;13.21;42.36;92300.22;6295730;22;20022;-92
2021/05/04 13:58:13;;;;;;;;;;;;;;;;;;;;;
2021/05/04 14:01:21;;;;;;;5.88;2.40;;;;;;;13.46;42.34;92312.66;6311232;22;20003;-93
2021/05/04 14:29:24;;;;;;;5.85;2.28;;;;;;;13.64;44.20;92302.16;6287648;22;20015;-93
2021/05/04 14:32:51;;;;;;;;;;;;;;;;;;;;;
2021/05/04 14:43:08;;;;;;;;;;;;;;;;;;;;;
2021/05/04 14:53:44;;;;;;;3.55;1.85;;;;;;;13.71;42.18;92232.25;6292979;22;20043;-93
2021/05/04 15:09:25;;;;;;;;;;;;;;;;;;;;;
2021/05/04 17:32:05;;;;;;;;;;;;;;;;;;;;;
2021/05/04 17:44:24;;;;;;;;;;;;;;;;;;;;;
2021/05/04 17:51:34;;;;;;;4.40;1.95;;;;;;;12.60;49.79;92132.75;5789569;24;20029;-92
2021/05/04 18:30:45;;;;;;;5.55;2.30;;;;;;;11.92;52.86;92105.25;5743158;24;20037;-90
2021/05/04 18:56:10;;;;;;;3.20;1.40;;;;;;;19.78;37.83;92155.78;4935109;28;71279;-62
2021/05/04 20:11:44;;;;;;;5.80;2.40;;;;;;;10.98;63.01;92158.31;4978099;28;20247;-79
2021/05/04 20:14:10;;;;;;;4.22;2.30;;;;;;;10.97;63.60;92167.25;4984637;28;20484;-80
2021/05/04 20:16:40;;;;;;;7.50;2.60;;;;;;;10.95;63.88;92168.63;4976734;28;20030;-81
2021/05/04 20:19:07;;;;;;;4.70;2.55;;;;;;;10.99;64.40;92164.34;4983249;28;20043;-81
2021/05/04 20:21:33;;;;;;;4.38;2.33;;;;;;;10.90;65.16;92163.47;4938097;28;20039;-80
2021/05/04 20:23:59;;;;;;;4.72;2.42;;;;;;;10.76;65.65;92159.06;4985490;28;20034;-78
2021/05/04 20:26:24;;;;;;;4.75;2.55;;;;;;;10.76;65.42;92155.66;4975461;28;20106;-77
2021/05/04 20:28:50;;;;;;;6.95;2.70;;;;;;;10.62;65.76;92147.84;4983299;28;20042;-77
2021/05/04 20:31:16;;;;;;;4.70;2.42;;;;;;;10.59;66.31;92161.53;4978295;28;20121;-76
2021/05/04 20:33:42;;;;;;;4.45;2.25;;;;;;;10.57;66.59;92156.56;4984024;28;20027;-77
2021/05/04 20:36:08;;;;;;;4.28;2.35;;;;;;;10.37;67.71;92155.13;4949217;28;20277;-77
2021/05/04 20:38:35;;;;;;;10.70;2.50;;;;;;;10.33;67.52;92156.00;4945860;28;20500;-76
2021/05/04 20:41:01;;;;;;;6.60;2.58;;;;;;;10.27;68.15;92155.31;4970524;28;20046;-77
2021/05/04 20:43:27;;;;;;;4.18;2.33;;;;;;;10.31;69.01;92166.00;4963526;28;20377;-77
2021/05/04 20:45:53;;;;;;;7.45;2.55;;;;;;;10.30;68.91;92160.00;4953229;28;20036;-76
2021/05/04 20:48:19;;;;;;;5.18;2.50;;;;;;;10.34;69.37;92160.19;4957128;28;20035;-77
2021/05/04 20:50:46;;;;;;;5.20;2.53;;;;;;;10.31;69.29;92155.53;4961339;28;20026;-77
2021/05/04 20:53:12;;;;;;;5.63;2.45;;;;;;;10.33;69.05;92154.16;4972373;28;20039;-77
2021/05/04 20:55:39;;;;;;;4.28;2.50;;;;;;;10.28;68.79;92150.88;4964553;28;20523;-77
2021/05/04 20:58:05;;;;;;;5.60;2.50;;;;;;;10.24;69.28;92157.75;4963115;28;20495;-77
2021/05/04 21:00:31;;;;;;;7.68;2.60;;;;;;;10.12;69.67;92148.53;4968719;28;20030;-77
2021/05/04 21:02:57;;;;;;;6.75;2.47;;;;;;;10.05;69.97;92140.31;4971918;28;20034;-77
2021/05/04 21:05:23;;;;;;;7.47;2.90;;;;;;;10.07;71.20;92145.25;4965114;28;20525;-77
2021/05/04 21:07:51;;;;;;;7.18;3.05;;;;;;;9.99;70.98;92149.31;4969882;28;20038;-77
2021/05/04 21:10:33;;;;;;;7.07;2.60;;;;;;;9.97;71.57;92152.22;4968490;28;20448;-76
2021/05/04 21:12:59;;;;;;;4.70;2.87;;;;;;;9.92;72.51;92154.91;4958625;28;20077;-77
2021/05/04 21:15:26;;;;;;;5.85;2.75;;;;;;;9.87;72.93;92154.25;4968213;28;20501;-77
2021/05/04 21:18:00;;;;;;;5.20;2.58;;;;;;;9.86;72.90;92160.53;4971623;28;20041;-77
2021/05/04 21:20:42;;;;;;;6.90;2.80;;;;;;;9.82;73.13;92155.13;4965696;28;20043;-77
2021/05/04 21:28:14;;;;;;;6.75;2.85;;;;;;;9.76;73.57;92141.34;4967293;28;20046;-77
2021/05/04 21:30:40;;;;;;;6.50;2.83;;;;;;;9.73;73.66;92139.31;4970657;28;20562;-77
2021/05/04 21:33:07;;;;;;;6.22;3.03;;;;;;;9.72;74.39;92135.13;4955643;28;20556;-77
2021/05/04 21:35:34;;;;;;;5.18;2.90;;;;;;;9.70;74.75;92147.72;4961824;28;20051;-77
2021/05/04 21:38:00;;;;;;;6.10;2.80;;;;;;;9.69;73.87;92140.19;4965868;28;20034;-77
2021/05/04 21:40:27;;;;;;;7.35;3.00;;;;;;;9.67;73.80;92132.63;4968404;28;20476;-76
2021/05/04 21:42:53;;;;;;;7.13;2.78;;;;;;;9.66;74.15;92125.06;4972279;28;20046;-76
2021/05/04 21:45:21;;;;;;;5.97;2.80;;;;;;;9.64;74.08;92133.22;4958974;28;20023;-76
2021/05/04 21:47:47;;;;;;;6.85;2.90;;;;;;;9.63;73.81;92136.09;4954997;28;20113;-77
2021/05/04 21:50:14;;;;;;;5.38;2.80;;;;;;;9.60;73.67;92127.00;4964916;28;20038;-77
2021/05/04 21:52:40;;;;;;;5.05;2.60;;;;;;;9.57;73.51;92130.97;4964236;28;20197;-77
2021/05/04 21:55:08;;;;;;;6.32;2.83;;;;;;;9.55;72.59;92127.09;4957386;28;20046;-77
2021/05/04 21:57:34;;;;;;;7.05;2.67;;;;;;;9.53;71.27;92131.84;4968954;28;20041;-76
2021/05/04 22:00:00;;;;;;;6.13;2.58;;;;;;;9.46;70.69;92137.44;4957788;28;20077;-77
2021/05/04 22:02:30;;;;;;;6.53;2.60;;;;;;;9.43;70.60;92137.22;4968092;28;20100;-76
2021/05/04 22:05:00;;;;;;;5.32;2.38;;;;;;;9.39;70.57;92137.03;4940896;28;20041;-77
2021/05/04 22:07:26;;;;;;;4.53;2.40;;;;;;;9.40;69.98;92135.19;4960581;28;20031;-75
2021/05/04 22:09:54;;;;;;;5.63;2.60;;;;;;;9.33;70.87;92133.72;4957354;28;20271;-76
2021/05/04 22:12:23;;;;;;;5.47;2.50;;;;;;;9.29;70.64;92137.19;4953032;28;20103;-77
2021/05/04 22:14:54;;;;;;;5.35;2.55;;;;;;;9.28;70.37;92141.66;4963246;28;20046;-77
2021/05/04 22:34:42;;;;;;;6.95;2.50;;;;;;;9.14;71.36;92132.97;4953296;28;20065;-77
2021/05/04 22:36:02;;;;;;;6.00;2.63;;;;;;;9.12;71.72;92117.63;4964445;28;20054;-77
2021/05/04 22:38:28;;;;;;;6.72;2.50;;;;;;;9.08;72.08;92126.31;4960026;28;20062;-76
2021/05/04 22:41:13;;;;;;;6.93;3.05;;;;;;;9.09;72.21;92122.63;4936331;28;20140;-77
2021/05/04 22:43:48;;;;;;;4.80;2.55;;;;;;;9.04;72.53;92117.47;4952439;28;20039;-76
2021/05/04 22:46:35;;;;;;;6.85;3.00;;;;;;;9.05;72.50;92108.56;4952064;28;20034;-77
2021/05/04 23:18:45;;;;;;;5.07;2.60;;;;;;;8.86;74.00;92095.56;4966272;28;20463;-77
2021/05/04 23:21:12;;;;;;;8.05;4.35;;;;;;;8.86;74.02;92092.94;4968769;28;20085;-77
2021/05/04 23:23:38;;;;;;;5.40;2.97;;;;;;;8.73;73.41;92091.81;4968873;28;20035;-77
2021/05/04 23:26:04;;;;;;;5.45;2.60;;;;;;;8.60;74.23;92095.16;4964432;28;20374;-77
2021/05/04 23:28:29;;;;;;;5.15;2.53;;;;;;;8.48;74.86;92083.31;4970775;28;20035;-77
2021/05/04 23:30:55;;;;;;;6.15;2.78;;;;;;;8.38;74.92;92083.44;4953084;28;20405;-77
2021/05/04 23:33:20;;;;;;;5.40;2.78;;;;;;;8.30;74.82;92077.00;4965953;28;20023;-77
2021/05/04 23:35:46;;;;;;;5.32;2.60;;;;;;;8.23;75.32;92079.19;4968907;28;20067;-77
2021/05/04 23:38:12;;;;;;;6.20;2.70;;;;;;;8.18;75.79;92073.28;4957592;28;20043;-76
2021/05/04 23:40:37;;;;;;;4.88;2.70;;;;;;;8.07;75.99;92073.41;4961944;28;20138;-77
2021/05/04 23:43:03;;;;;;;5.25;2.78;;;;;;;7.96;76.17;92064.16;4961850;28;20038;-77
2021/05/04 23:45:29;;;;;;;6.55;2.80;;;;;;;7.83;76.01;92051.78;4951544;28;20501;-76
2021/05/04 23:47:54;;;;;;;7.43;2.63;;;;;;;7.78;76.22;92050.03;4952484;28;20115;-77
2021/05/04 23:50:20;;;;;;;6.18;2.95;;;;;;;7.76;76.12;92062.56;4967959;28;20046;-77
2021/05/04 23:52:46;;;;;;;11.65;7.40;;;;;;;7.71;75.83;92066.00;4968988;28;20473;-74
2021/05/04 23:55:12;;;;;;;7.30;4.07;;;;;;;7.65;75.66;92067.09;4960644;28;20031;-77
2021/05/04 23:57:39;;;;;;;5.43;3.13;;;;;;;7.54;75.73;92060.44;4964297;28;20023;-77
